sensor_id;sensor_type;location;lat;lon;timestamp;temperature;humidity
41469;DHT22;27206;47.032;15.484;2022-08-05T00:00:33;21.20;1.00
41469;DHT22;27206;47.032;15.484;2022-08-05T00:02:59;21.00;1.00
41469;DHT22;27206;47.032;15.484;2022-08-05T00:05:25;21.10;1.00
41469;DHT22;27206;47.032;15.484;2022-08-05T00:07:50;21.10;1.00
41469;DHT22;27206;47.032;15.484;2022-08-05T00:10:16;21.00;1.00
41469;DHT22;27206;47.032;15.484;2022-08-05T00:12:42;21.00;1.00
41469;DHT22;27206;47.032;15.484;2022-08-05T00:15:08;21.00;1.00
41469;DHT22;27206;47.032;15.484;2022-08-05T00:17:34;20.80;1.00
41469;DHT22;27206;47.032;15.484;2022-08-05T00:19:59;20.80;1.00
41469;DHT22;27206;47.032;15.484;2022-08-05T00:22:25;20.80;1.00
41469;DHT22;27206;47.032;15.484;2022-08-05T00:24:51;20.70;1.00
41469;DHT22;27206;47.032;15.484;2022-08-05T00:27:16;20.80;1.00
41469;DHT22;27206;47.032;15.484;2022-08-05T00:29:42;20.70;1.00
41469;DHT22;27206;47.032;15.484;2022-08-05T00:32:07;20.70;1.00
41469;DHT22;27206;47.032;15.484;2022-08-05T00:34:38;20.60;1.00
41469;DHT22;27206;47.032;15.484;2022-08-05T00:37:04;20.60;1.00
41469;DHT22;27206;47.032;15.484;2022-08-05T00:39:30;20.50;1.00
41469;DHT22;27206;47.032;15.484;2022-08-05T00:41:55;20.40;1.00
41469;DHT22;27206;47.032;15.484;2022-08-05T00:44:22;20.40;1.00
41469;DHT22;27206;47.032;15.484;2022-08-05T00:46:48;20.30;1.00
41469;DHT22;27206;47.032;15.484;2022-08-05T00:49:14;20.20;1.00
41469;DHT22;27206;47.032;15.484;2022-08-05T00:51:43;20.10;1.00
41469;DHT22;27206;47.032;15.484;2022-08-05T00:54:11;20.20;1.00
41469;DHT22;27206;47.032;15.484;2022-08-05T00:56:36;20.10;1.00
41469;DHT22;27206;47.032;15.484;2022-08-05T00:59:02;20.00;1.00
41469;DHT22;27206;47.032;15.484;2022-08-05T01:01:28;20.00;1.00
41469;DHT22;27206;47.032;15.484;2022-08-05T01:03:53;19.90;1.00
41469;DHT22;27206;47.032;15.484;2022-08-05T01:06:19;20.00;1.00
41469;DHT22;27206;47.032;15.484;2022-08-05T01:08:45;20.00;1.00
41469;DHT22;27206;47.032;15.484;2022-08-05T01:14:06;20.10;1.00
41469;DHT22;27206;47.032;15.484;2022-08-05T01:16:47;20.00;1.00
41469;DHT22;27206;47.032;15.484;2022-08-05T01:20:11;20.00;1.00
41469;DHT22;27206;47.032;15.484;2022-08-05T01:30:35;19.80;1.00
41469;DHT22;27206;47.032;15.484;2022-08-05T01:33:08;19.80;1.00
41469;DHT22;27206;47.032;15.484;2022-08-05T01:35:38;19.80;1.00
41469;DHT22;27206;47.032;15.484;2022-08-05T01:38:05;19.80;1.00
41469;DHT22;27206;47.032;15.484;2022-08-05T01:40:32;19.80;1.00
41469;DHT22;27206;47.032;15.484;2022-08-05T01:43:00;19.70;1.00
41469;DHT22;27206;47.032;15.484;2022-08-05T01:45:28;19.60;1.00
41469;DHT22;27206;47.032;15.484;2022-08-05T01:47:56;19.50;1.00
41469;DHT22;27206;47.032;15.484;2022-08-05T01:50:29;19.50;1.00
41469;DHT22;27206;47.032;15.484;2022-08-05T01:53:01;19.60;1.00
41469;DHT22;27206;47.032;15.484;2022-08-05T01:55:29;19.60;1.00
41469;DHT22;27206;47.032;15.484;2022-08-05T01:57:57;19.60;1.00
41469;DHT22;27206;47.032;15.484;2022-08-05T02:00:24;19.60;1.00
41469;DHT22;27206;47.032;15.484;2022-08-05T02:03:02;19.60;1.00
41469;DHT22;27206;47.032;15.484;2022-08-05T02:05:32;19.50;1.00
41469;DHT22;27206;47.032;15.484;2022-08-05T02:07:59;19.50;1.00
41469;DHT22;27206;47.032;15.484;2022-08-05T02:10:27;19.50;1.00
41469;DHT22;27206;47.032;15.484;2022-08-05T02:13:03;19.30;1.00
41469;DHT22;27206;47.032;15.484;2022-08-05T02:15:35;19.20;1.00
41469;DHT22;27206;47.032;15.484;2022-08-05T02:18:19;19.30;1.00
41469;DHT22;27206;47.032;15.484;2022-08-05T02:20:57;19.20;1.00
41469;DHT22;27206;47.032;15.484;2022-08-05T02:23:31;19.20;1.00
41469;DHT22;27206;47.032;15.484;2022-08-05T02:25:59;19.30;1.00
41469;DHT22;27206;47.032;15.484;2022-08-05T02:28:29;19.30;1.00
41469;DHT22;27206;47.032;15.484;2022-08-05T02:31:10;19.30;1.00
41469;DHT22;27206;47.032;15.484;2022-08-05T02:33:40;19.40;1.00
41469;DHT22;27206;47.032;15.484;2022-08-05T02:36:11;19.40;1.00
41469;DHT22;27206;47.032;15.484;2022-08-05T02:38:38;19.40;1.00
41469;DHT22;27206;47.032;15.484;2022-08-05T02:41:07;19.40;1.00
41469;DHT22;27206;47.032;15.484;2022-08-05T02:43:34;19.30;1.00
41469;DHT22;27206;47.032;15.484;2022-08-05T02:46:02;19.30;1.00
41469;DHT22;27206;47.032;15.484;2022-08-05T02:48:28;19.20;1.00
41469;DHT22;27206;47.032;15.484;2022-08-05T02:51:00;19.10;1.00
41469;DHT22;27206;47.032;15.484;2022-08-05T02:53:28;19.20;1.00
41469;DHT22;27206;47.032;15.484;2022-08-05T02:55:54;19.10;1.00
41469;DHT22;27206;47.032;15.484;2022-08-05T02:58:22;19.20;1.00
41469;DHT22;27206;47.032;15.484;2022-08-05T03:00:49;19.50;1.00
41469;DHT22;27206;47.032;15.484;2022-08-05T03:03:18;19.30;1.00
41469;DHT22;27206;47.032;15.484;2022-08-05T03:05:45;20.00;1.00
41469;DHT22;27206;47.032;15.484;2022-08-05T03:08:12;19.60;1.00
41469;DHT22;27206;47.032;15.484;2022-08-05T03:10:42;19.80;1.00
41469;DHT22;27206;47.032;15.484;2022-08-05T03:13:15;19.50;1.00
41469;DHT22;27206;47.032;15.484;2022-08-05T03:15:45;19.80;1.00
41469;DHT22;27206;47.032;15.484;2022-08-05T03:18:11;19.40;1.00
41469;DHT22;27206;47.032;15.484;2022-08-05T03:20:37;19.30;1.00
41469;DHT22;27206;47.032;15.484;2022-08-05T03:23:05;19.00;1.00
41469;DHT22;27206;47.032;15.484;2022-08-05T03:25:32;19.30;1.00
41469;DHT22;27206;47.032;15.484;2022-08-05T03:27:58;19.10;1.00
41469;DHT22;27206;47.032;15.484;2022-08-05T03:30:25;18.90;1.00
41469;DHT22;27206;47.032;15.484;2022-08-05T03:32:52;19.10;1.00
41469;DHT22;27206;47.032;15.484;2022-08-05T03:35:19;19.10;1.00
41469;DHT22;27206;47.032;15.484;2022-08-05T03:37:45;19.20;1.00
41469;DHT22;27206;47.032;15.484;2022-08-05T03:40:11;19.00;1.00
41469;DHT22;27206;47.032;15.484;2022-08-05T03:42:37;19.00;1.00
41469;DHT22;27206;47.032;15.484;2022-08-05T03:45:06;19.00;1.00
41469;DHT22;27206;47.032;15.484;2022-08-05T03:47:31;19.00;1.00
41469;DHT22;27206;47.032;15.484;2022-08-05T03:49:57;19.10;1.00
41469;DHT22;27206;47.032;15.484;2022-08-05T03:52:27;19.10;1.00
41469;DHT22;27206;47.032;15.484;2022-08-05T03:55:00;19.10;1.00
41469;DHT22;27206;47.032;15.484;2022-08-05T03:57:29;18.90;1.00
41469;DHT22;27206;47.032;15.484;2022-08-05T04:00:12;19.00;1.00
41469;DHT22;27206;47.032;15.484;2022-08-05T04:02:40;19.00;1.00
41469;DHT22;27206;47.032;15.484;2022-08-05T04:05:08;19.00;1.00
41469;DHT22;27206;47.032;15.484;2022-08-05T04:07:35;19.00;1.00
41469;DHT22;27206;47.032;15.484;2022-08-05T04:10:02;19.00;1.00
41469;DHT22;27206;47.032;15.484;2022-08-05T04:12:28;19.00;1.00
41469;DHT22;27206;47.032;15.484;2022-08-05T04:14:54;19.00;1.00
41469;DHT22;27206;47.032;15.484;2022-08-05T04:17:20;18.80;1.00
41469;DHT22;27206;47.032;15.484;2022-08-05T04:19:47;18.90;1.00
41469;DHT22;27206;47.032;15.484;2022-08-05T04:22:13;18.90;1.00
41469;DHT22;27206;47.032;15.484;2022-08-05T04:24:45;19.00;1.00
41469;DHT22;27206;47.032;15.484;2022-08-05T04:27:12;19.00;1.00
41469;DHT22;27206;47.032;15.484;2022-08-05T04:29:38;19.00;1.00
41469;DHT22;27206;47.032;15.484;2022-08-05T04:32:04;19.10;1.00
41469;DHT22;27206;47.032;15.484;2022-08-05T04:34:30;19.10;1.00
41469;DHT22;27206;47.032;15.484;2022-08-05T04:36:56;19.10;1.00
41469;DHT22;27206;47.032;15.484;2022-08-05T04:39:21;19.10;1.00
41469;DHT22;27206;47.032;15.484;2022-08-05T04:41:47;19.20;1.00
41469;DHT22;27206;47.032;15.484;2022-08-05T04:44:13;19.10;1.00
41469;DHT22;27206;47.032;15.484;2022-08-05T04:46:39;19.30;1.00
41469;DHT22;27206;47.032;15.484;2022-08-05T04:49:05;19.40;1.00
41469;DHT22;27206;47.032;15.484;2022-08-05T04:51:31;19.40;1.00
41469;DHT22;27206;47.032;15.484;2022-08-05T04:53:57;19.50;1.00
41469;DHT22;27206;47.032;15.484;2022-08-05T04:56:23;19.50;1.00
41469;DHT22;27206;47.032;15.484;2022-08-05T04:58:49;19.50;1.00
41469;DHT22;27206;47.032;15.484;2022-08-05T05:01:15;19.50;1.00
41469;DHT22;27206;47.032;15.484;2022-08-05T05:03:40;19.60;1.00
41469;DHT22;27206;47.032;15.484;2022-08-05T05:06:09;19.60;1.00
41469;DHT22;27206;47.032;15.484;2022-08-05T05:08:36;19.70;1.00
41469;DHT22;27206;47.032;15.484;2022-08-05T05:11:02;19.80;1.00
41469;DHT22;27206;47.032;15.484;2022-08-05T05:13:28;19.90;1.00
41469;DHT22;27206;47.032;15.484;2022-08-05T05:15:54;20.00;1.00
41469;DHT22;27206;47.032;15.484;2022-08-05T05:18:20;20.00;1.00
41469;DHT22;27206;47.032;15.484;2022-08-05T05:20:46;20.00;1.00
41469;DHT22;27206;47.032;15.484;2022-08-05T05:23:12;20.10;1.00
41469;DHT22;27206;47.032;15.484;2022-08-05T05:25:42;20.20;1.00
41469;DHT22;27206;47.032;15.484;2022-08-05T05:28:09;20.30;1.00
41469;DHT22;27206;47.032;15.484;2022-08-05T05:30:39;20.40;1.00
41469;DHT22;27206;47.032;15.484;2022-08-05T05:33:06;20.50;1.00
41469;DHT22;27206;47.032;15.484;2022-08-05T05:35:33;20.50;1.00
41469;DHT22;27206;47.032;15.484;2022-08-05T05:38:00;20.60;1.00
41469;DHT22;27206;47.032;15.484;2022-08-05T05:40:28;20.70;1.00
41469;DHT22;27206;47.032;15.484;2022-08-05T05:42:53;20.70;1.00
41469;DHT22;27206;47.032;15.484;2022-08-05T05:45:20;20.80;1.00
41469;DHT22;27206;47.032;15.484;2022-08-05T05:47:46;21.00;1.00
41469;DHT22;27206;47.032;15.484;2022-08-05T05:50:14;21.00;1.00
41469;DHT22;27206;47.032;15.484;2022-08-05T05:52:41;21.10;1.00
41469;DHT22;27206;47.032;15.484;2022-08-05T05:55:08;21.10;1.00
41469;DHT22;27206;47.032;15.484;2022-08-05T05:57:36;21.20;1.00
41469;DHT22;27206;47.032;15.484;2022-08-05T06:00:03;21.30;1.00
41469;DHT22;27206;47.032;15.484;2022-08-05T06:02:29;21.40;1.00
41469;DHT22;27206;47.032;15.484;2022-08-05T06:04:54;21.40;1.00
41469;DHT22;27206;47.032;15.484;2022-08-05T06:07:20;21.50;1.00
41469;DHT22;27206;47.032;15.484;2022-08-05T06:09:45;21.60;1.00
41469;DHT22;27206;47.032;15.484;2022-08-05T06:12:11;21.70;1.00
41469;DHT22;27206;47.032;15.484;2022-08-05T06:14:37;21.90;1.00
41469;DHT22;27206;47.032;15.484;2022-08-05T06:17:04;22.00;1.00
41469;DHT22;27206;47.032;15.484;2022-08-05T06:19:29;22.00;1.00
41469;DHT22;27206;47.032;15.484;2022-08-05T06:21:55;22.10;1.00
41469;DHT22;27206;47.032;15.484;2022-08-05T06:24:20;22.20;1.00
41469;DHT22;27206;47.032;15.484;2022-08-05T06:26:46;22.30;1.00
41469;DHT22;27206;47.032;15.484;2022-08-05T06:29:12;22.40;1.00
41469;DHT22;27206;47.032;15.484;2022-08-05T06:31:37;22.50;1.00
41469;DHT22;27206;47.032;15.484;2022-08-05T06:34:03;22.60;1.00
41469;DHT22;27206;47.032;15.484;2022-08-05T06:36:30;22.70;1.00
41469;DHT22;27206;47.032;15.484;2022-08-05T06:38:55;22.80;1.00
41469;DHT22;27206;47.032;15.484;2022-08-05T06:41:21;22.90;1.00
41469;DHT22;27206;47.032;15.484;2022-08-05T06:43:47;23.00;1.00
41469;DHT22;27206;47.032;15.484;2022-08-05T06:46:13;23.10;1.00
41469;DHT22;27206;47.032;15.484;2022-08-05T06:48:39;23.20;1.00
41469;DHT22;27206;47.032;15.484;2022-08-05T06:51:05;23.20;1.00
41469;DHT22;27206;47.032;15.484;2022-08-05T06:53:31;23.40;1.00
41469;DHT22;27206;47.032;15.484;2022-08-05T06:55:57;23.50;1.00
41469;DHT22;27206;47.032;15.484;2022-08-05T06:58:24;23.60;1.00
41469;DHT22;27206;47.032;15.484;2022-08-05T07:00:50;23.60;1.00
41469;DHT22;27206;47.032;15.484;2022-08-05T07:03:15;23.70;1.00
41469;DHT22;27206;47.032;15.484;2022-08-05T07:05:41;23.80;1.00
41469;DHT22;27206;47.032;15.484;2022-08-05T07:08:07;23.90;1.00
41469;DHT22;27206;47.032;15.484;2022-08-05T07:10:33;24.10;1.00
41469;DHT22;27206;47.032;15.484;2022-08-05T07:12:58;24.10;1.00
41469;DHT22;27206;47.032;15.484;2022-08-05T07:15:42;24.20;1.00
41469;DHT22;27206;47.032;15.484;2022-08-05T07:18:27;24.40;1.00
41469;DHT22;27206;47.032;15.484;2022-08-05T07:20:52;24.50;1.00
41469;DHT22;27206;47.032;15.484;2022-08-05T07:23:18;24.60;1.00
41469;DHT22;27206;47.032;15.484;2022-08-05T07:25:44;24.70;1.00
41469;DHT22;27206;47.032;15.484;2022-08-05T07:28:09;24.80;1.00
41469;DHT22;27206;47.032;15.484;2022-08-05T07:30:36;24.90;1.00
41469;DHT22;27206;47.032;15.484;2022-08-05T07:33:03;25.00;1.00
41469;DHT22;27206;47.032;15.484;2022-08-05T07:35:29;25.10;1.00
41469;DHT22;27206;47.032;15.484;2022-08-05T07:37:55;25.30;1.00
41469;DHT22;27206;47.032;15.484;2022-08-05T07:40:20;25.40;1.00
41469;DHT22;27206;47.032;15.484;2022-08-05T07:42:47;25.40;1.00
41469;DHT22;27206;47.032;15.484;2022-08-05T07:45:13;25.70;1.00
41469;DHT22;27206;47.032;15.484;2022-08-05T07:47:38;25.80;1.00
41469;DHT22;27206;47.032;15.484;2022-08-05T07:50:04;25.90;1.00
41469;DHT22;27206;47.032;15.484;2022-08-05T07:52:30;26.00;1.00
41469;DHT22;27206;47.032;15.484;2022-08-05T07:54:56;26.20;1.00
41469;DHT22;27206;47.032;15.484;2022-08-05T07:57:21;26.30;1.00
41469;DHT22;27206;47.032;15.484;2022-08-05T07:59:47;26.30;1.00
41469;DHT22;27206;47.032;15.484;2022-08-05T08:02:13;26.50;1.00
41469;DHT22;27206;47.032;15.484;2022-08-05T08:04:39;26.60;1.00
41469;DHT22;27206;47.032;15.484;2022-08-05T08:07:05;26.70;1.00
41469;DHT22;27206;47.032;15.484;2022-08-05T08:09:30;26.80;1.00
41469;DHT22;27206;47.032;15.484;2022-08-05T08:11:56;26.80;1.00
41469;DHT22;27206;47.032;15.484;2022-08-05T08:14:22;26.80;1.00
41469;DHT22;27206;47.032;15.484;2022-08-05T08:16:47;26.90;1.00
41469;DHT22;27206;47.032;15.484;2022-08-05T08:19:13;27.00;1.00
41469;DHT22;27206;47.032;15.484;2022-08-05T08:21:38;27.10;1.00
41469;DHT22;27206;47.032;15.484;2022-08-05T08:24:06;27.30;1.00
41469;DHT22;27206;47.032;15.484;2022-08-05T08:26:32;27.40;1.00
41469;DHT22;27206;47.032;15.484;2022-08-05T08:28:59;27.40;1.00
41469;DHT22;27206;47.032;15.484;2022-08-05T08:31:24;27.60;1.00
41469;DHT22;27206;47.032;15.484;2022-08-05T08:33:50;27.80;1.00
41469;DHT22;27206;47.032;15.484;2022-08-05T08:36:16;28.00;1.00
41469;DHT22;27206;47.032;15.484;2022-08-05T08:38:41;28.10;1.00
41469;DHT22;27206;47.032;15.484;2022-08-05T08:41:09;28.20;1.00
41469;DHT22;27206;47.032;15.484;2022-08-05T08:43:39;28.30;1.00
41469;DHT22;27206;47.032;15.484;2022-08-05T08:46:05;28.30;1.00
41469;DHT22;27206;47.032;15.484;2022-08-05T08:48:32;28.40;1.00
41469;DHT22;27206;47.032;15.484;2022-08-05T08:50:59;28.40;1.00
41469;DHT22;27206;47.032;15.484;2022-08-05T08:53:26;28.40;1.00
41469;DHT22;27206;47.032;15.484;2022-08-05T08:55:52;28.60;1.00
41469;DHT22;27206;47.032;15.484;2022-08-05T08:58:18;28.70;1.00
41469;DHT22;27206;47.032;15.484;2022-08-05T09:00:44;29.00;1.00
41469;DHT22;27206;47.032;15.484;2022-08-05T09:03:11;28.90;1.00
41469;DHT22;27206;47.032;15.484;2022-08-05T09:05:37;29.00;1.00
41469;DHT22;27206;47.032;15.484;2022-08-05T09:08:03;29.20;1.00
41469;DHT22;27206;47.032;15.484;2022-08-05T09:10:29;29.20;1.00
41469;DHT22;27206;47.032;15.484;2022-08-05T09:12:56;29.40;1.00
41469;DHT22;27206;47.032;15.484;2022-08-05T09:15:22;29.60;1.00
41469;DHT22;27206;47.032;15.484;2022-08-05T09:17:49;29.80;1.00
41469;DHT22;27206;47.032;15.484;2022-08-05T09:20:18;29.80;1.00
41469;DHT22;27206;47.032;15.484;2022-08-05T09:23:04;29.90;1.00
41469;DHT22;27206;47.032;15.484;2022-08-05T09:25:30;29.90;1.00
41469;DHT22;27206;47.032;15.484;2022-08-05T09:28:15;30.10;1.00
41469;DHT22;27206;47.032;15.484;2022-08-05T09:30:52;30.30;1.00
41469;DHT22;27206;47.032;15.484;2022-08-05T09:33:19;30.40;99.90
41469;DHT22;27206;47.032;15.484;2022-08-05T09:35:57;30.90;99.90
41469;DHT22;27206;47.032;15.484;2022-08-05T09:38:24;31.00;99.90
41469;DHT22;27206;47.032;15.484;2022-08-05T09:40:49;31.00;99.90
41469;DHT22;27206;47.032;15.484;2022-08-05T09:43:35;31.10;1.00
41469;DHT22;27206;47.032;15.484;2022-08-05T09:46:02;31.10;99.90
41469;DHT22;27206;47.032;15.484;2022-08-05T09:48:31;31.50;99.90
41469;DHT22;27206;47.032;15.484;2022-08-05T09:51:01;31.80;99.90
41469;DHT22;27206;47.032;15.484;2022-08-05T09:53:28;31.80;99.90
41469;DHT22;27206;47.032;15.484;2022-08-05T09:55:57;32.10;99.90
41469;DHT22;27206;47.032;15.484;2022-08-05T09:58:23;32.50;99.90
41469;DHT22;27206;47.032;15.484;2022-08-05T10:01:00;32.40;99.90
41469;DHT22;27206;47.032;15.484;2022-08-05T10:03:27;32.00;99.90
41469;DHT22;27206;47.032;15.484;2022-08-05T10:08:29;32.40;99.90
41469;DHT22;27206;47.032;15.484;2022-08-05T10:10:55;32.50;99.90
41469;DHT22;27206;47.032;15.484;2022-08-05T10:13:32;32.50;99.90
41469;DHT22;27206;47.032;15.484;2022-08-05T10:15:58;32.70;99.90
41469;DHT22;27206;47.032;15.484;2022-08-05T10:18:25;32.70;99.90
41469;DHT22;27206;47.032;15.484;2022-08-05T10:23:26;33.40;99.90
41469;DHT22;27206;47.032;15.484;2022-08-05T10:26:00;33.40;99.90
41469;DHT22;27206;47.032;15.484;2022-08-05T10:28:27;33.10;99.90
41469;DHT22;27206;47.032;15.484;2022-08-05T10:30:53;33.00;99.90
41469;DHT22;27206;47.032;15.484;2022-08-05T10:33:20;33.00;99.90
41469;DHT22;27206;47.032;15.484;2022-08-05T10:35:48;33.20;99.90
41469;DHT22;27206;47.032;15.484;2022-08-05T10:38:14;33.10;99.90
41469;DHT22;27206;47.032;15.484;2022-08-05T10:46:04;33.40;99.90
41469;DHT22;27206;47.032;15.484;2022-08-05T10:48:32;33.40;99.90
41469;DHT22;27206;47.032;15.484;2022-08-05T10:51:01;33.90;99.90
41469;DHT22;27206;47.032;15.484;2022-08-05T10:53:41;33.80;99.90
41469;DHT22;27206;47.032;15.484;2022-08-05T10:56:57;33.90;99.90
41469;DHT22;27206;47.032;15.484;2022-08-05T10:59:05;34.40;99.90
41469;DHT22;27206;47.032;15.484;2022-08-05T11:01:39;34.40;99.90
41469;DHT22;27206;47.032;15.484;2022-08-05T11:04:16;34.50;99.90
41469;DHT22;27206;47.032;15.484;2022-08-05T11:09:26;34.50;99.90
41469;DHT22;27206;47.032;15.484;2022-08-05T11:11:53;34.60;99.90
41469;DHT22;27206;47.032;15.484;2022-08-05T11:17:32;34.90;99.90
41469;DHT22;27206;47.032;15.484;2022-08-05T11:20:03;34.90;99.90
41469;DHT22;27206;47.032;15.484;2022-08-05T11:22:46;35.20;99.90
41469;DHT22;27206;47.032;15.484;2022-08-05T11:25:37;35.00;99.90
41469;DHT22;27206;47.032;15.484;2022-08-05T11:33:27;35.10;99.90
41469;DHT22;27206;47.032;15.484;2022-08-05T11:35:58;35.50;99.90
41469;DHT22;27206;47.032;15.484;2022-08-05T11:41:09;35.70;99.90
41469;DHT22;27206;47.032;15.484;2022-08-05T11:43:38;36.00;99.90
41469;DHT22;27206;47.032;15.484;2022-08-05T11:46:04;36.20;99.90
41469;DHT22;27206;47.032;15.484;2022-08-05T11:48:30;36.20;99.90
41469;DHT22;27206;47.032;15.484;2022-08-05T11:50:56;36.30;99.90
41469;DHT22;27206;47.032;15.484;2022-08-05T11:53:22;36.70;99.90
41469;DHT22;27206;47.032;15.484;2022-08-05T11:56:01;36.80;99.90
41469;DHT22;27206;47.032;15.484;2022-08-05T11:58:34;37.00;99.90
41469;DHT22;27206;47.032;15.484;2022-08-05T12:01:18;36.90;99.90
41469;DHT22;27206;47.032;15.484;2022-08-05T12:03:46;37.40;99.90
41469;DHT22;27206;47.032;15.484;2022-08-05T12:06:14;37.40;99.90
41469;DHT22;27206;47.032;15.484;2022-08-05T12:08:46;37.80;99.90
41469;DHT22;27206;47.032;15.484;2022-08-05T12:11:23;37.80;99.90
41469;DHT22;27206;47.032;15.484;2022-08-05T12:14:02;37.80;99.90
41469;DHT22;27206;47.032;15.484;2022-08-05T12:16:32;38.10;99.90
41469;DHT22;27206;47.032;15.484;2022-08-05T12:18:59;37.80;99.90
41469;DHT22;27206;47.032;15.484;2022-08-05T12:21:26;38.30;99.90
41469;DHT22;27206;47.032;15.484;2022-08-05T12:23:53;38.10;99.90
41469;DHT22;27206;47.032;15.484;2022-08-05T12:26:19;38.10;99.90
41469;DHT22;27206;47.032;15.484;2022-08-05T12:28:44;37.60;99.90
41469;DHT22;27206;47.032;15.484;2022-08-05T12:31:10;38.10;99.90
41469;DHT22;27206;47.032;15.484;2022-08-05T12:33:36;38.50;99.90
41469;DHT22;27206;47.032;15.484;2022-08-05T12:36:03;38.70;99.90
41469;DHT22;27206;47.032;15.484;2022-08-05T12:38:29;38.20;99.90
41469;DHT22;27206;47.032;15.484;2022-08-05T12:40:56;38.60;99.90
41469;DHT22;27206;47.032;15.484;2022-08-05T12:43:21;38.80;99.90
41469;DHT22;27206;47.032;15.484;2022-08-05T12:45:52;38.70;99.90
41469;DHT22;27206;47.032;15.484;2022-08-05T12:48:18;38.90;99.90
41469;DHT22;27206;47.032;15.484;2022-08-05T12:51:10;39.00;99.90
41469;DHT22;27206;47.032;15.484;2022-08-05T12:53:43;39.20;99.90
41469;DHT22;27206;47.032;15.484;2022-08-05T12:56:22;39.60;99.90
41469;DHT22;27206;47.032;15.484;2022-08-05T12:59:13;40.40;99.90
41469;DHT22;27206;47.032;15.484;2022-08-05T13:01:41;40.10;99.90
41469;DHT22;27206;47.032;15.484;2022-08-05T13:04:07;40.10;99.90
41469;DHT22;27206;47.032;15.484;2022-08-05T13:06:45;39.60;99.90
41469;DHT22;27206;47.032;15.484;2022-08-05T13:09:12;39.90;99.90
41469;DHT22;27206;47.032;15.484;2022-08-05T13:11:40;39.70;99.90
41469;DHT22;27206;47.032;15.484;2022-08-05T13:14:13;39.50;99.90
41469;DHT22;27206;47.032;15.484;2022-08-05T13:16:51;39.40;99.90
41469;DHT22;27206;47.032;15.484;2022-08-05T13:19:20;39.90;99.90
41469;DHT22;27206;47.032;15.484;2022-08-05T13:21:46;40.10;99.90
41469;DHT22;27206;47.032;15.484;2022-08-05T13:24:12;39.70;99.90
41469;DHT22;27206;47.032;15.484;2022-08-05T13:26:38;38.90;99.90
41469;DHT22;27206;47.032;15.484;2022-08-05T13:29:04;38.80;99.90
41469;DHT22;27206;47.032;15.484;2022-08-05T13:31:29;39.30;99.90
41469;DHT22;27206;47.032;15.484;2022-08-05T13:33:55;39.00;99.90
41469;DHT22;27206;47.032;15.484;2022-08-05T13:36:21;38.60;99.90
41469;DHT22;27206;47.032;15.484;2022-08-05T13:38:47;38.50;99.90
41469;DHT22;27206;47.032;15.484;2022-08-05T13:41:13;38.30;99.90
41469;DHT22;27206;47.032;15.484;2022-08-05T13:43:40;38.00;99.90
41469;DHT22;27206;47.032;15.484;2022-08-05T13:46:08;38.10;99.90
41469;DHT22;27206;47.032;15.484;2022-08-05T13:48:34;38.20;99.90
41469;DHT22;27206;47.032;15.484;2022-08-05T13:51:07;38.30;99.90
41469;DHT22;27206;47.032;15.484;2022-08-05T13:53:34;38.70;99.90
41469;DHT22;27206;47.032;15.484;2022-08-05T13:56:04;39.00;99.90
41469;DHT22;27206;47.032;15.484;2022-08-05T13:58:30;38.90;99.90
41469;DHT22;27206;47.032;15.484;2022-08-05T14:00:56;38.70;99.90
41469;DHT22;27206;47.032;15.484;2022-08-05T14:03:22;38.50;99.90
41469;DHT22;27206;47.032;15.484;2022-08-05T14:05:47;38.80;99.90
41469;DHT22;27206;47.032;15.484;2022-08-05T14:08:13;38.80;99.90
41469;DHT22;27206;47.032;15.484;2022-08-05T14:10:39;38.70;99.90
41469;DHT22;27206;47.032;15.484;2022-08-05T14:13:05;38.80;99.90
41469;DHT22;27206;47.032;15.484;2022-08-05T14:15:34;38.50;99.90
41469;DHT22;27206;47.032;15.484;2022-08-05T14:18:01;38.60;99.90
41469;DHT22;27206;47.032;15.484;2022-08-05T14:20:28;38.30;99.90
41469;DHT22;27206;47.032;15.484;2022-08-05T14:22:57;37.40;99.90
41469;DHT22;27206;47.032;15.484;2022-08-05T14:25:23;36.60;99.90
41469;DHT22;27206;47.032;15.484;2022-08-05T14:27:49;36.40;99.90
41469;DHT22;27206;47.032;15.484;2022-08-05T14:30:16;37.30;99.90
41469;DHT22;27206;47.032;15.484;2022-08-05T14:32:42;38.00;99.90
41469;DHT22;27206;47.032;15.484;2022-08-05T14:35:08;38.10;99.90
41469;DHT22;27206;47.032;15.484;2022-08-05T14:37:34;38.20;99.90
41469;DHT22;27206;47.032;15.484;2022-08-05T14:40:01;37.40;99.90
41469;DHT22;27206;47.032;15.484;2022-08-05T14:42:26;36.60;99.90
41469;DHT22;27206;47.032;15.484;2022-08-05T14:44:52;35.80;99.90
41469;DHT22;27206;47.032;15.484;2022-08-05T14:47:18;35.50;99.90
41469;DHT22;27206;47.032;15.484;2022-08-05T14:49:44;35.10;99.90
41469;DHT22;27206;47.032;15.484;2022-08-05T14:52:09;35.00;99.90
41469;DHT22;27206;47.032;15.484;2022-08-05T14:54:35;34.60;99.90
41469;DHT22;27206;47.032;15.484;2022-08-05T14:57:01;34.50;99.90
41469;DHT22;27206;47.032;15.484;2022-08-05T14:59:27;34.30;99.90
41469;DHT22;27206;47.032;15.484;2022-08-05T15:01:53;34.10;99.90
41469;DHT22;27206;47.032;15.484;2022-08-05T15:04:20;34.00;99.90
41469;DHT22;27206;47.032;15.484;2022-08-05T15:06:45;33.80;99.90
41469;DHT22;27206;47.032;15.484;2022-08-05T15:09:11;33.70;99.90
41469;DHT22;27206;47.032;15.484;2022-08-05T15:11:40;33.50;99.90
41469;DHT22;27206;47.032;15.484;2022-08-05T15:14:06;33.50;99.90
41469;DHT22;27206;47.032;15.484;2022-08-05T15:16:31;33.30;99.90
41469;DHT22;27206;47.032;15.484;2022-08-05T15:18:57;33.20;99.90
41469;DHT22;27206;47.032;15.484;2022-08-05T15:21:23;33.10;99.90
41469;DHT22;27206;47.032;15.484;2022-08-05T15:23:48;33.10;99.90
41469;DHT22;27206;47.032;15.484;2022-08-05T15:26:14;33.00;99.90
41469;DHT22;27206;47.032;15.484;2022-08-05T15:28:42;32.90;99.90
41469;DHT22;27206;47.032;15.484;2022-08-05T15:31:08;32.80;99.90
41469;DHT22;27206;47.032;15.484;2022-08-05T15:33:34;32.80;99.90
41469;DHT22;27206;47.032;15.484;2022-08-05T15:36:01;32.70;99.90
41469;DHT22;27206;47.032;15.484;2022-08-05T15:38:26;32.70;99.90
41469;DHT22;27206;47.032;15.484;2022-08-05T15:40:52;32.70;99.90
41469;DHT22;27206;47.032;15.484;2022-08-05T15:43:18;32.60;99.90
41469;DHT22;27206;47.032;15.484;2022-08-05T15:45:44;32.60;99.90
41469;DHT22;27206;47.032;15.484;2022-08-05T15:48:10;32.50;99.90
41469;DHT22;27206;47.032;15.484;2022-08-05T15:50:36;32.40;99.90
41469;DHT22;27206;47.032;15.484;2022-08-05T15:53:01;32.40;99.90
41469;DHT22;27206;47.032;15.484;2022-08-05T15:55:27;32.30;99.90
41469;DHT22;27206;47.032;15.484;2022-08-05T15:57:53;32.30;99.90
41469;DHT22;27206;47.032;15.484;2022-08-05T16:00:19;32.30;99.90
41469;DHT22;27206;47.032;15.484;2022-08-05T16:02:44;32.20;99.90
41469;DHT22;27206;47.032;15.484;2022-08-05T16:05:10;32.20;99.90